Time;durP1;ratioP1;P1;durP2;ratioP2;P2;SDS_P1;SDS_P2;PMS_P1;PMS_P2;Temp;Humidity;BMP_temperature;BMP_pressure;BME280_temperature;BME280_humidity;BME280_pressure;Samples;Min_cycle;Max_cycle;Signal;HPM_P1;HPM_P2
2022/12/18 00:02:03;;;;;;;35.30;13.57;;;;;;;-0.38;59.15;101145.50;4411854;32;20102;-88
2022/12/18 00:04:28;;;;;;;38.40;14.50;;;;;;;-0.47;59.15;101149.44;4400697;32;20150;-87
2022/12/18 00:06:54;;;;;;;43.63;15.02;;;;;;;-0.56;59.14;101157.62;4402314;32;20177;-87
2022/12/18 00:09:19;;;;;;;45.78;15.23;;;;;;;-0.70;59.13;101157.16;4372414;32;20128;-88
2022/12/18 00:11:45;;;;;;;37.92;14.00;;;;;;;-0.71;59.13;101163.09;4384493;32;20160;-89
2022/12/18 00:14:11;;;;;;;44.05;15.38;;;;;;;-0.73;59.12;101174.06;4369275;32;20112;-88
2022/12/18 00:16:37;;;;;;;45.30;15.57;;;;;;;-0.74;59.12;101168.06;4389769;32;20098;-86
2022/12/18 00:19:03;;;;;;;37.63;13.88;;;;;;;-0.64;59.14;101180.38;4396791;32;20108;-86
2022/12/18 00:21:28;;;;;;;43.47;14.75;;;;;;;-0.65;59.13;101188.00;4384561;32;20118;-88
2022/12/18 00:23:54;;;;;;;44.67;15.52;;;;;;;-0.71;59.13;101190.31;4383732;32;20129;-88
2022/12/18 00:26:24;;;;;;;44.75;16.48;;;;;;;-0.63;59.14;101187.25;4396914;32;20144;-88
2022/12/18 00:28:49;;;;;;;42.25;14.57;;;;;;;-0.85;59.13;101200.06;4397414;32;20173;-88
2022/12/18 00:31:16;;;;;;;32.92;12.75;;;;;;;-0.93;59.12;101197.22;4378063;32;20380;-88
2022/12/18 00:33:42;;;;;;;36.63;14.50;;;;;;;-0.93;59.12;101207.44;4389840;32;20129;-88
2022/12/18 00:36:12;;;;;;;35.92;13.70;;;;;;;-0.91;59.12;101209.19;4396823;32;20416;-87
2022/12/18 00:38:38;;;;;;;44.45;13.13;;;;;;;-0.85;59.12;101196.63;4367188;32;20136;-88
2022/12/18 00:41:04;;;;;;;44.35;15.15;;;;;;;-1.01;59.12;101198.59;4368729;32;20170;-88
2022/12/18 00:43:29;;;;;;;44.22;13.50;;;;;;;-1.01;59.12;101198.59;4370028;32;20128;-88
2022/12/18 00:45:54;;;;;;;44.38;15.52;;;;;;;-1.08;59.11;101206.84;4371393;32;20155;-87
2022/12/18 00:48:20;;;;;;;40.72;15.93;;;;;;;-1.07;59.11;101206.03;4371746;32;20102;-88
2022/12/18 00:50:47;;;;;;;37.45;13.73;;;;;;;-1.08;59.11;101211.97;4396823;32;20191;-87
2022/12/18 00:53:12;;;;;;;41.20;14.32;;;;;;;-0.97;59.11;101222.59;4392147;32;20114;-88
2022/12/18 00:55:39;;;;;;;41.00;14.32;;;;;;;-0.96;59.11;101217.53;4394091;32;20141;-88
2022/12/18 00:58:04;;;;;;;40.47;14.45;;;;;;;-0.90;59.12;101224.59;4380386;32;20097;-88
2022/12/18 01:00:29;;;;;;;46.05;15.10;;;;;;;-0.89;59.12;101221.22;4397761;32;20458;-87
2022/12/18 01:02:55;;;;;;;45.63;14.90;;;;;;;-0.89;59.12;101222.91;4396819;32;20146;-87
2022/12/18 01:05:20;;;;;;;46.45;16.90;;;;;;;-0.87;59.11;101227.25;4391297;32;20093;-87
2022/12/18 01:07:46;;;;;;;46.22;16.20;;;;;;;-0.70;59.13;101230.44;4392567;32;20122;-87
2022/12/18 01:10:11;;;;;;;40.72;15.20;;;;;;;-0.86;59.12;101228.12;4389785;32;20357;-87
2022/12/18 01:12:37;;;;;;;38.78;14.23;;;;;;;-0.79;59.13;101235.19;4396339;32;20114;-87
2022/12/18 01:15:03;;;;;;;39.17;14.40;;;;;;;-0.69;59.13;101237.28;4404750;32;20140;-86
2022/12/18 01:17:28;;;;;;;39.08;15.25;;;;;;;-0.86;59.13;101239.22;4397955;32;20211;-86
2022/12/18 01:19:54;;;;;;;45.70;16.30;;;;;;;-0.79;59.13;101243.72;4379721;32;20197;-88
2022/12/18 01:22:19;;;;;;;45.92;15.70;;;;;;;-0.85;59.12;101245.19;4396088;32;20480;-87
2022/12/18 01:24:47;;;;;;;45.50;15.93;;;;;;;-0.67;59.13;101251.00;4395909;32;20116;-87
2022/12/18 01:27:13;;;;;;;45.10;15.48;;;;;;;-0.79;59.13;101247.97;4385498;32;20105;-87
2022/12/18 01:29:38;;;;;;;51.60;16.83;;;;;;;-0.69;59.13;101247.53;4395837;32;20117;-86
2022/12/18 01:32:04;;;;;;;43.50;14.82;;;;;;;-0.63;59.14;101253.72;4382011;32;20114;-86
2022/12/18 01:34:29;;;;;;;46.08;16.08;;;;;;;-0.64;59.14;101256.22;4395807;32;20144;-88
2022/12/18 01:36:55;;;;;;;40.42;14.45;;;;;;;-0.72;59.12;101260.16;4391413;32;20097;-89
2022/12/18 01:39:20;;;;;;;43.65;16.10;;;;;;;-0.62;59.14;101257.16;4398058;32;20163;-88
2022/12/18 01:45:05;;;;;;;42.70;15.23;;;;;;;-0.71;59.13;101270.47;4402325;32;20108;-85
2022/12/18 01:47:53;;;;;;;43.40;15.30;;;;;;;-0.83;59.12;101274.25;4410325;32;20127;-87
2022/12/18 01:50:38;;;;;;;44.97;16.20;;;;;;;-0.86;59.12;101285.22;4396463;32;20118;-87
2022/12/18 01:53:11;;;;;;;41.70;15.40;;;;;;;-0.54;59.14;101286.44;4406211;32;20067;-88
2022/12/18 01:55:56;;;;;;;46.55;15.35;;;;;;;-0.63;59.14;101288.66;4394898;32;20116;-90
2022/12/18 01:58:24;;;;;;;37.95;14.57;;;;;;;-0.48;59.14;101285.78;4411254;32;20123;-88
2022/12/18 02:00:49;;;;;;;48.15;15.20;;;;;;;-0.35;59.15;101276.06;4401536;32;20122;-88
2022/12/18 02:03:15;;;;;;;43.08;16.05;;;;;;;-0.24;59.16;101276.44;4386660;32;20171;-86
2022/12/18 02:05:46;;;;;;;46.28;16.33;;;;;;;-0.59;59.14;101279.41;4400476;32;20154;-88
2022/12/18 02:08:21;;;;;;;51.28;15.93;;;;;;;-0.42;59.15;101275.81;4403327;32;20664;-87
2022/12/18 02:11:12;;;;;;;42.20;15.25;;;;;;;-0.44;59.14;101285.97;4389151;32;182624;-89
2022/12/18 02:17:04;;;;;;;47.35;16.75;;;;;;;-0.55;59.14;101294.91;4413454;32;20094;-89
2022/12/18 02:19:42;;;;;;;40.97;14.07;;;;;;;-0.56;59.14;101298.28;4410943;32;20097;-90
2022/12/18 02:22:28;;;;;;;46.45;15.82;;;;;;;-0.67;59.13;101291.91;4410988;32;20114;-90
2022/12/18 02:25:02;;;;;;;42.38;16.05;;;;;;;-0.64;59.14;101297.16;4383877;32;20197;-90
2022/12/18 02:27:32;;;;;;;43.53;14.43;;;;;;;-0.59;59.13;101299.88;4391696;32;20082;-90
2022/12/18 02:29:57;;;;;;;44.30;16.35;;;;;;;-0.71;59.13;101311.37;4396858;32;20071;-88
2022/12/18 02:32:35;;;;;;;45.85;15.90;;;;;;;-0.62;59.14;101308.31;4395152;32;20139;-89
2022/12/18 02:35:01;;;;;;;47.22;15.50;;;;;;;-0.64;59.14;101313.34;4401749;32;20058;-92
2022/12/18 02:37:27;;;;;;;43.97;15.00;;;;;;;-0.75;59.13;101312.06;4401792;32;20111;-89
2022/12/18 02:39:53;;;;;;;43.50;15.00;;;;;;;-0.61;59.13;101312.59;4393770;32;20136;-88
2022/12/18 02:42:18;;;;;;;42.72;15.63;;;;;;;-0.60;59.13;101321.16;4395481;32;20140;-88
2022/12/18 02:44:45;;;;;;;45.90;15.10;;;;;;;-0.63;59.14;101327.03;4396380;32;20113;-87
2022/12/18 02:47:15;;;;;;;44.20;15.40;;;;;;;-0.68;59.13;101324.28;4390084;32;20085;-87
2022/12/18 02:49:58;;;;;;;40.80;13.32;;;;;;;-0.77;59.13;101321.34;4397863;32;20094;-87
2022/12/18 02:52:43;;;;;;;50.47;16.98;;;;;;;-0.70;59.13;101323.38;4397787;32;20491;-88
2022/12/18 02:55:44;;;;;;;43.10;16.35;;;;;;;-0.89;59.12;101326.00;4411450;32;20240;-88
2022/12/18 02:58:38;;;;;;;44.95;15.95;;;;;;;-0.80;59.13;101334.03;4400590;32;20093;-87
2022/12/18 03:01:07;;;;;;;41.47;14.70;;;;;;;-0.88;59.12;101332.00;4402553;32;20093;-86
2022/12/18 03:03:40;;;;;;;42.83;15.98;;;;;;;-0.90;59.12;101336.19;4410709;32;20133;-87
2022/12/18 03:06:11;;;;;;;49.22;15.45;;;;;;;-0.86;59.12;101338.91;4404935;32;20806;-87
2022/12/18 03:08:38;;;;;;;42.78;15.77;;;;;;;-0.93;59.12;101350.59;4391592;32;20123;-90
2022/12/18 03:11:06;;;;;;;50.42;15.80;;;;;;;-1.06;59.11;101347.47;4392953;32;20104;-89
2022/12/18 03:13:52;;;;;;;45.35;17.02;;;;;;;-0.86;59.12;101358.50;4410317;32;20121;-88
2022/12/18 03:16:24;;;;;;;46.92;16.37;;;;;;;-0.90;59.12;101351.50;4398963;32;20118;-87
2022/12/18 03:18:52;;;;;;;40.12;16.15;;;;;;;-0.89;59.12;101350.69;4382365;32;20106;-88
2022/12/18 03:21:19;;;;;;;46.13;15.23;;;;;;;-0.88;59.12;101363.53;4396532;32;20067;-87
2022/12/18 03:23:46;;;;;;;44.58;16.35;;;;;;;-0.84;59.13;101367.09;4372658;32;20149;-86
2022/12/18 03:29:43;;;;;;;39.92;14.95;;;;;;;-1.16;59.11;101378.56;4385704;32;20066;-89
2022/12/18 03:32:31;;;;;;;39.72;15.02;;;;;;;-1.23;59.11;101385.97;4369658;32;20086;-88
2022/12/18 03:34:58;;;;;;;43.35;15.30;;;;;;;-1.00;59.12;101384.34;4396716;32;20106;-89
2022/12/18 03:37:23;;;;;;;42.42;16.40;;;;;;;-0.91;59.12;101385.56;4373090;32;20098;-87
2022/12/18 03:39:52;;;;;;;46.20;15.30;;;;;;;-0.79;59.13;101394.56;4382380;32;20177;-89
2022/12/18 03:42:49;;;;;;;38.25;14.60;;;;;;;-0.90;59.12;101389.84;4389459;32;20116;-90
2022/12/18 03:48:51;;;;;;;41.95;15.35;;;;;;;-0.99;59.11;101401.44;4376289;32;20086;-88
2022/12/18 03:51:28;;;;;;;46.25;16.75;;;;;;;-0.96;59.11;101405.78;4389876;32;20093;-87
2022/12/18 03:54:43;;;;;;;40.50;14.40;;;;;;;-0.97;59.11;101401.50;4382056;32;20145;-89
2022/12/18 03:57:22;;;;;;;45.95;15.95;;;;;;;-1.09;59.10;101408.66;4398132;32;20106;-88
2022/12/18 03:59:50;;;;;;;46.05;16.40;;;;;;;-1.21;59.10;101410.69;4393788;32;20788;-89
2022/12/18 04:02:16;;;;;;;54.60;16.70;;;;;;;-1.11;59.10;101407.72;4384457;32;20109;-88
2022/12/18 04:04:41;;;;;;;48.58;16.10;;;;;;;-1.29;59.10;101407.84;4384572;32;20105;-90
2022/12/18 04:07:09;;;;;;;41.80;14.18;;;;;;;-1.23;59.11;101411.50;4396800;32;20169;-91
2022/12/18 04:09:35;;;;;;;41.92;16.35;;;;;;;-1.18;59.10;101410.81;4369102;32;20116;-88
2022/12/18 04:12:00;;;;;;;44.10;16.45;;;;;;;-1.40;59.09;101417.59;4384608;32;20086;-91
2022/12/18 04:14:25;;;;;;;49.10;16.08;;;;;;;-1.45;59.08;101420.75;4369034;32;20168;-88
2022/12/18 04:16:54;;;;;;;44.65;16.05;;;;;;;-1.56;59.08;101423.72;4393974;32;20153;-89
2022/12/18 04:19:46;;;;;;;45.58;15.50;;;;;;;-1.46;59.08;101421.56;4398622;32;20166;-89
2022/12/18 04:22:17;;;;;;;39.40;15.38;;;;;;;-1.41;59.09;101420.97;4400073;32;20215;-90
2022/12/18 04:24:46;;;;;;;43.72;14.23;;;;;;;-1.75;59.07;101423.72;4411917;32;20695;-90
2022/12/18 04:27:12;;;;;;;43.90;15.57;;;;;;;-1.70;59.07;101422.22;4411668;32;20114;-88
2022/12/18 04:29:37;;;;;;;42.58;14.93;;;;;;;-1.59;59.09;101423.59;4411909;32;20183;-88
2022/12/18 04:32:03;;;;;;;42.25;15.82;;;;;;;-1.72;59.07;101428.94;4399369;32;20134;-87
2022/12/18 04:35:00;;;;;;;40.35;14.48;;;;;;;-1.83;59.07;101426.75;4411569;32;20127;-91
2022/12/18 04:37:26;;;;;;;36.67;13.93;;;;;;;-1.72;59.08;101428.09;4399816;32;20110;-91
2022/12/18 04:39:52;;;;;;;45.75;13.90;;;;;;;-1.69;59.07;101431.62;4386671;32;20396;-91
2022/12/18 04:42:17;;;;;;;42.53;14.02;;;;;;;-1.72;59.07;101441.72;4379547;32;20213;-89
2022/12/18 04:44:55;;;;;;;46.85;15.88;;;;;;;-1.82;59.07;101439.56;4374990;32;20200;-90
2022/12/18 04:47:23;;;;;;;39.35;14.55;;;;;;;-2.03;59.05;101461.56;4411116;32;20110;-91
2022/12/18 04:49:55;;;;;;;80.75;27.55;;;;;;;-1.99;59.06;101458.34;4375095;32;20110;-90
2022/12/18 04:52:20;;;;;;;178.15;56.15;;;;;;;-2.24;59.04;101462.31;4380352;32;20090;-89
2022/12/18 04:54:55;;;;;;;315.08;88.95;;;;;;;-2.14;59.04;101465.28;4412478;32;20181;-91
2022/12/18 04:57:20;;;;;;;82.03;28.17;;;;;;;-2.04;59.05;101472.56;4409814;32;20079;-89
2022/12/18 04:59:46;;;;;;;72.60;22.73;;;;;;;-2.11;59.04;101478.19;4379733;32;20519;-88
2022/12/18 05:02:11;;;;;;;183.40;59.65;;;;;;;-2.09;59.06;101477.47;4406828;32;20148;-90
2022/12/18 05:04:36;;;;;;;105.30;45.45;;;;;;;-2.33;59.03;101483.97;4414487;32;20101;-89
2022/12/18 05:07:08;;;;;;;79.95;33.92;;;;;;;-2.35;59.04;101486.44;4396334;32;20118;-89
2022/12/18 05:10:40;;;;;;;50.78;22.00;;;;;;;-2.31;59.04;101490.87;4398004;32;20128;-85
2022/12/18 05:13:14;;;;;;;48.35;21.85;;;;;;;-2.27;59.03;101491.91;4337416;32;20176;-89
2022/12/18 05:15:41;;;;;;;48.17;18.12;;;;;;;-2.38;59.03;101491.37;4342344;32;20051;-88
2022/12/18 05:18:13;;;;;;;46.58;19.77;;;;;;;-2.35;59.04;101486.44;4393866;32;20209;-89
2022/12/18 05:20:38;;;;;;;46.28;15.75;;;;;;;-2.19;59.04;101483.81;4396179;32;20098;-89
2022/12/18 05:23:03;;;;;;;49.13;17.52;;;;;;;-2.22;59.04;101477.69;4410519;32;20149;-88
2022/12/18 05:25:32;;;;;;;42.42;15.18;;;;;;;-2.37;59.03;101490.56;4398977;32;20097;-87
2022/12/18 05:27:57;;;;;;;43.30;14.93;;;;;;;-2.40;59.03;101500.63;4388194;32;20125;-87
2022/12/18 05:30:27;;;;;;;45.30;14.93;;;;;;;-2.53;59.02;101499.19;4385934;32;20158;-89
2022/12/18 05:32:52;;;;;;;45.15;14.70;;;;;;;-2.40;59.02;101505.72;4414854;32;20085;-87
2022/12/18 05:35:21;;;;;;;42.58;14.82;;;;;;;-2.45;59.03;101502.09;4411464;32;20120;-89
2022/12/18 05:37:46;;;;;;;46.37;14.77;;;;;;;-2.35;59.04;101500.88;4398782;32;20132;-88
2022/12/18 05:40:24;;;;;;;47.38;14.82;;;;;;;-2.57;59.02;101506.59;4410680;32;20110;-89
2022/12/18 05:43:05;;;;;;;44.47;15.60;;;;;;;-2.38;59.04;101509.22;4375104;32;23379;-87
2022/12/18 05:45:51;;;;;;;40.25;14.55;;;;;;;-2.48;59.03;101515.56;4423271;32;20094;-88
2022/12/18 05:48:22;;;;;;;47.15;15.63;;;;;;;-2.71;59.01;101520.34;4410736;32;20108;-90
2022/12/18 05:50:51;;;;;;;41.08;13.35;;;;;;;-2.88;59.01;101522.03;4398760;32;20788;-87
2022/12/18 05:53:18;;;;;;;43.90;14.98;;;;;;;-2.66;59.01;101527.41;4385745;32;20085;-89
2022/12/18 05:55:52;;;;;;;36.42;14.05;;;;;;;-2.74;59.02;101527.84;4398282;32;20458;-90
2022/12/18 05:58:17;;;;;;;41.30;13.75;;;;;;;-2.85;59.00;101530.69;4396636;32;20118;-89
2022/12/18 06:00:44;;;;;;;46.25;14.75;;;;;;;-2.63;59.01;101529.22;4395378;32;20444;-87
2022/12/18 06:03:10;;;;;;;44.42;13.23;;;;;;;-2.74;59.02;101533.81;4370981;32;20067;-87
2022/12/18 06:05:39;;;;;;;47.97;15.90;;;;;;;-2.97;59.00;101537.75;4392811;32;20097;-87
2022/12/18 06:08:05;;;;;;;;;;;;;;;-3.01;59.00;101542.63;4398742;32;20113;-88
2022/12/18 06:10:30;;;;;;;43.67;13.40;;;;;;;-2.93;59.00;101544.75;4413289;32;19988;-91
2022/12/18 06:12:56;;;;;;;36.00;13.25;;;;;;;-2.91;59.00;101534.63;4408326;32;20557;-89
2022/12/18 06:15:21;;;;;;;40.47;13.23;;;;;;;-2.57;59.02;101545.72;4402652;32;20160;-89
2022/12/18 06:17:46;;;;;;;41.53;13.65;;;;;;;-2.84;59.00;101546.88;4394112;32;20557;-88
2022/12/18 06:20:12;;;;;;;39.13;13.52;;;;;;;-2.90;59.00;101552.53;4410887;32;20434;-89
2022/12/18 06:22:37;;;;;;;35.63;13.93;;;;;;;-2.87;59.00;101557.78;4380697;32;20423;-87
2022/12/18 06:25:03;;;;;;;42.30;13.95;;;;;;;-2.72;59.01;101546.63;4390591;32;20900;-88
2022/12/18 06:27:29;;;;;;;44.38;14.48;;;;;;;-2.65;59.01;101552.09;4399933;32;20124;-88
2022/12/18 06:29:54;;;;;;;41.45;13.88;;;;;;;-2.67;59.02;101552.81;4397281;32;20157;-88
2022/12/18 06:32:19;;;;;;;44.92;15.48;;;;;;;-2.78;59.01;101560.81;4396044;32;20086;-88
2022/12/18 06:34:45;;;;;;;38.70;14.10;;;;;;;-2.74;59.02;101571.16;4407906;32;20534;-88
2022/12/18 06:37:10;;;;;;;44.78;15.27;;;;;;;-2.72;59.01;101572.13;4376214;32;20487;-88
2022/12/18 06:39:36;;;;;;;44.15;14.27;;;;;;;-2.79;59.01;101574.34;4383913;32;20174;-88
2022/12/18 06:42:01;;;;;;;44.17;14.23;;;;;;;-2.62;59.01;101577.72;4372740;32;20130;-88
2022/12/18 06:44:27;;;;;;;51.72;15.63;;;;;;;-2.52;59.03;101587.62;4397269;32;20408;-88
2022/12/18 06:46:52;;;;;;;41.28;15.52;;;;;;;-2.71;59.01;101590.03;4398395;32;20141;-87
2022/12/18 06:49:17;;;;;;;50.33;15.65;;;;;;;-2.70;59.01;101586.69;4409791;32;20098;-87
2022/12/18 06:51:43;;;;;;;41.80;14.93;;;;;;;-2.61;59.02;101584.59;4400164;32;20551;-89
2022/12/18 06:54:08;;;;;;;37.13;15.15;;;;;;;-2.66;59.02;101592.81;4412469;32;20157;-87
2022/12/18 06:56:34;;;;;;;35.10;13.60;;;;;;;-2.63;59.01;101592.97;4385246;32;20114;-89
2022/12/18 06:58:59;;;;;;;43.72;14.87;;;;;;;-2.48;59.03;101597.16;4387580;32;20110;-89
2022/12/18 07:01:25;;;;;;;46.10;15.95;;;;;;;-2.78;59.01;101604.13;4399969;32;20158;-89
2022/12/18 07:03:54;;;;;;;46.47;14.27;;;;;;;-2.64;59.02;101607.38;4412243;32;20458;-89
2022/12/18 07:06:20;;;;;;;41.08;14.25;;;;;;;-2.45;59.03;101609.19;4397473;32;20128;-89
2022/12/18 07:08:46;;;;;;;48.35;15.60;;;;;;;-2.49;59.03;101608.16;4386054;32;20109;-88
2022/12/18 07:11:12;;;;;;;39.78;15.00;;;;;;;-2.47;59.03;101610.78;4398460;32;20124;-91
2022/12/18 07:13:37;;;;;;;44.03;14.52;;;;;;;-2.30;59.04;101617.59;4397198;32;20113;-90
2022/12/18 07:16:07;;;;;;;41.22;13.68;;;;;;;-2.29;59.04;101618.47;4412023;32;20146;-88
2022/12/18 07:18:33;;;;;;;42.60;14.35;;;;;;;-2.28;59.04;101622.78;4400147;32;20459;-89
2022/12/18 07:21:01;;;;;;;43.40;14.43;;;;;;;-2.43;59.03;101625.44;4395266;32;20157;-89
2022/12/18 07:23:27;;;;;;;47.22;16.35;;;;;;;-2.45;59.03;101628.72;4369687;32;20135;-84
2022/12/18 07:25:52;;;;;;;42.15;15.10;;;;;;;-2.44;59.03;101633.87;4404487;32;20392;-86
2022/12/18 07:28:18;;;;;;;48.85;16.52;;;;;;;-2.22;59.04;101638.38;4411074;32;20113;-86
2022/12/18 07:30:43;;;;;;;48.22;16.23;;;;;;;-2.39;59.02;101646.84;4410173;32;20385;-87
2022/12/18 07:33:08;;;;;;;48.80;17.08;;;;;;;-2.26;59.04;101655.22;4391888;32;20551;-86
2022/12/18 07:35:34;;;;;;;51.08;17.10;;;;;;;-2.18;59.04;101659.00;4374370;32;20157;-86
2022/12/18 07:38:00;;;;;;;42.35;16.05;;;;;;;-2.10;59.06;101654.31;4397011;32;20136;-87
2022/12/18 07:40:25;;;;;;;47.83;16.65;;;;;;;-2.08;59.05;101657.81;4408698;32;20204;-87
2022/12/18 07:42:50;;;;;;;44.22;15.73;;;;;;;-2.06;59.05;101665.53;4405299;32;20102;-86
2022/12/18 07:45:16;;;;;;;51.10;17.00;;;;;;;-1.94;59.06;101667.00;4409725;32;20463;-87
2022/12/18 07:47:41;;;;;;;52.13;18.10;;;;;;;-1.66;59.08;101663.22;4397751;32;20386;-88
2022/12/18 07:50:07;;;;;;;54.30;18.25;;;;;;;-1.72;59.07;101668.03;4412385;32;20176;-90
2022/12/18 07:52:33;;;;;;;46.67;17.30;;;;;;;-1.61;59.08;101677.13;4412592;32;20109;-91
2022/12/18 07:54:58;;;;;;;39.92;15.82;;;;;;;-1.45;59.09;101676.12;4399193;32;20117;-91
2022/12/18 07:57:24;;;;;;;54.88;19.05;;;;;;;-1.50;59.09;101682.72;4396384;32;20118;-90
2022/12/18 07:59:49;;;;;;;51.88;18.15;;;;;;;-1.47;59.08;101686.28;4377277;32;20120;-91
2022/12/18 08:02:14;;;;;;;49.00;16.60;;;;;;;-1.25;59.09;101688.16;4396610;32;20086;-90
2022/12/18 08:04:40;;;;;;;54.72;19.80;;;;;;;-1.18;59.10;101694.44;4388490;32;20117;-90
2022/12/18 08:07:05;;;;;;;54.55;19.12;;;;;;;-1.09;59.10;101690.66;4397509;32;20128;-87
2022/12/18 08:09:31;;;;;;;53.22;18.75;;;;;;;-0.98;59.11;101697.09;4408408;32;20161;-86
2022/12/18 08:11:56;;;;;;;50.50;17.87;;;;;;;-0.84;59.12;101701.97;4404709;32;20485;-85
2022/12/18 08:14:22;;;;;;;47.62;17.58;;;;;;;-0.92;59.12;101696.53;4398362;32;20173;-86
2022/12/18 08:16:48;;;;;;;55.00;19.25;;;;;;;-0.68;59.13;101704.44;4411427;32;20105;-86
2022/12/18 08:19:13;;;;;;;48.85;18.33;;;;;;;-0.46;59.14;101704.56;4411291;32;20115;-86
2022/12/18 08:21:38;;;;;;;51.40;18.98;;;;;;;-0.35;59.15;101695.66;4411582;32;20090;-87
2022/12/18 08:24:04;;;;;;;51.42;19.83;;;;;;;-0.22;59.15;101703.88;4386298;32;20144;-87
2022/12/18 08:26:30;;;;;;;49.00;18.67;;;;;;;-0.37;59.15;101707.53;4411617;32;20129;-87
2022/12/18 08:28:56;;;;;;;52.35;17.83;;;;;;;-0.34;59.15;101712.75;4404922;32;20124;-87
2022/12/18 08:31:21;;;;;;;53.13;19.15;;;;;;;-0.22;59.15;101711.56;4398924;32;20061;-87
2022/12/18 08:33:51;;;;;;;52.25;18.77;;;;;;;-0.29;59.15;101712.09;4424219;32;20619;-85
2022/12/18 08:36:17;;;;;;;43.90;16.98;;;;;;;-0.15;59.16;101711.87;4411546;32;20084;-86
2022/12/18 08:38:42;;;;;;;50.53;17.42;;;;;;;-0.08;59.16;101713.00;4411212;32;20463;-87
2022/12/18 08:41:10;;;;;;;53.80;18.67;;;;;;;-0.06;59.17;101717.38;4419295;32;20077;-86
2022/12/18 08:46:20;;;;;;;54.13;19.87;;;;;;;-0.19;59.16;101716.81;4404867;32;20119;-86
2022/12/18 08:48:45;;;;;;;46.60;16.70;;;;;;;-0.08;59.16;101706.19;4397716;32;20086;-86
2022/12/18 08:51:10;;;;;;;45.88;17.87;;;;;;;-0.05;59.17;101718.25;4401687;32;20109;-84
2022/12/18 08:53:36;;;;;;;41.50;15.70;;;;;;;-0.08;59.16;101715.56;4409288;32;20153;-86
2022/12/18 08:56:02;;;;;;;40.90;14.82;;;;;;;0.01;59.18;101715.97;4400334;32;20224;-87
2022/12/18 08:58:28;;;;;;;40.90;15.73;;;;;;;0.02;59.18;101716.84;4400466;32;20132;-86
2022/12/18 09:00:53;;;;;;;42.42;15.27;;;;;;;0.07;59.17;101721.34;4408583;32;20099;-86
2022/12/18 09:03:19;;;;;;;49.90;16.10;;;;;;;0.25;59.19;101724.69;4410343;32;20161;-85
2022/12/18 09:05:45;;;;;;;38.83;14.55;;;;;;;0.51;59.19;101733.41;4393185;32;20139;-85
2022/12/18 09:08:10;;;;;;;44.85;16.73;;;;;;;0.40;59.20;101734.66;4401496;32;20086;-85
2022/12/18 09:10:46;;;;;;;46.55;19.17;;;;;;;0.56;59.20;101741.28;4406687;32;20485;-86
2022/12/18 09:13:12;;;;;;;56.85;21.73;;;;;;;0.72;59.21;101733.41;4395759;32;20169;-86
2022/12/18 09:15:48;;;;;;;46.17;17.12;;;;;;;0.93;59.22;101735.91;4401659;32;20169;-87
2022/12/18 09:18:14;;;;;;;46.90;15.07;;;;;;;1.12;59.24;101737.47;4376327;32;20454;-86
2022/12/18 09:20:39;;;;;;;47.83;17.83;;;;;;;1.04;59.22;101736.34;4388849;32;20795;-86
2022/12/18 09:23:05;;;;;;;38.10;15.80;;;;;;;1.08;59.23;101733.94;4410358;32;20094;-85
2022/12/18 09:25:35;;;;;;;41.42;15.60;;;;;;;1.13;59.23;101723.84;4404304;32;20153;-86
2022/12/18 09:28:04;;;;;;;41.33;15.35;;;;;;;1.15;59.24;101725.66;4395814;32;20462;-87
2022/12/18 09:30:29;;;;;;;46.20;17.60;;;;;;;1.18;59.23;101730.00;4390742;32;20106;-87
2022/12/18 09:32:55;;;;;;;45.83;17.58;;;;;;;1.25;59.24;101733.72;4383279;32;20102;-87
2022/12/18 09:35:20;;;;;;;41.13;16.65;;;;;;;1.22;59.24;101725.09;4397412;32;20098;-95
2022/12/18 09:37:46;;;;;;;42.95;16.98;;;;;;;1.18;59.23;101722.31;4390167;32;20115;-88
2022/12/18 09:40:19;;;;;;;41.85;16.23;;;;;;;1.46;59.25;101722.56;4395899;32;20094;-87
2022/12/18 09:42:45;;;;;;;50.10;17.20;;;;;;;1.52;59.26;101720.19;4396243;32;20180;-86
2022/12/18 09:45:13;;;;;;;46.83;16.73;;;;;;;1.43;59.25;101727.56;4395932;32;20110;-87
2022/12/18 09:47:38;;;;;;;42.85;14.68;;;;;;;1.55;59.27;101727.12;4401886;32;20140;-88
2022/12/18 09:50:05;;;;;;;41.75;13.82;;;;;;;1.57;59.26;101722.91;4408712;32;20137;-88
2022/12/18 09:52:37;;;;;;;46.67;15.57;;;;;;;1.59;59.26;101718.72;4410052;32;20090;-86
2022/12/18 09:55:18;;;;;;;40.40;14.87;;;;;;;1.64;59.26;101724.87;4389792;32;20125;-85
2022/12/18 09:57:47;;;;;;;48.22;15.02;;;;;;;1.54;59.26;101725.37;4412495;32;20093;-85
2022/12/18 10:00:23;;;;;;;43.33;15.25;;;;;;;1.49;59.26;101724.34;4387439;32;20535;-84
2022/12/18 10:02:50;;;;;;;56.72;18.30;;;;;;;1.61;59.26;101727.34;4397504;32;20066;-87
2022/12/18 10:05:17;;;;;;;53.90;18.77;;;;;;;1.75;59.26;101723.59;4410211;32;20145;-88
2022/12/18 10:07:44;;;;;;;47.83;16.58;;;;;;;1.81;59.28;101728.06;4396594;32;20793;-88
2022/12/18 10:10:32;;;;;;;53.60;17.62;;;;;;;2.18;59.30;101730.19;4412714;32;20101;-88
2022/12/18 10:13:24;;;;;;;43.08;16.10;;;;;;;2.12;59.29;101725.72;4412310;32;20172;-88
2022/12/18 10:15:58;;;;;;;81.45;25.12;;;;;;;2.38;59.31;101728.31;4411001;32;20122;-87
2022/12/18 10:18:55;;;;;;;67.87;24.33;;;;;;;2.30;59.30;101730.59;4405312;32;20098;-86
2022/12/18 10:21:58;;;;;;;46.30;18.12;;;;;;;2.47;59.31;101720.88;4421750;32;20167;-85
2022/12/18 10:24:40;;;;;;;48.05;16.65;;;;;;;2.40;59.31;101732.66;4389186;32;20089;-89
2022/12/18 10:27:17;;;;;;;39.50;14.35;;;;;;;2.37;59.31;101716.28;4399871;32;20098;-87
2022/12/18 10:29:43;;;;;;;51.00;17.02;;;;;;;2.43;59.32;101717.34;4399494;32;20086;-85
2022/12/18 10:32:14;;;;;;;45.00;15.45;;;;;;;2.37;59.31;101714.56;4404861;32;20488;-87
2022/12/18 10:34:39;;;;;;;34.45;14.30;;;;;;;2.35;59.30;101720.47;4399257;32;20176;-87
2022/12/18 10:37:06;;;;;;;40.92;16.12;;;;;;;2.29;59.30;101718.56;4411710;32;30578;-87
2022/12/18 10:39:32;;;;;;;39.25;14.02;;;;;;;2.58;59.32;101711.78;4399981;32;20101;-88
2022/12/18 10:42:17;;;;;;;35.50;14.73;;;;;;;2.89;59.34;101716.22;4399886;32;20094;-88
2022/12/18 10:44:43;;;;;;;38.05;14.82;;;;;;;2.90;59.34;101709.38;4425479;32;20149;-87
2022/12/18 10:47:12;;;;;;;37.03;14.20;;;;;;;2.93;59.34;101712.03;4396605;32;20141;-87
2022/12/18 10:49:37;;;;;;;41.85;15.13;;;;;;;2.85;59.33;101719.53;4395755;32;20098;-87
2022/12/18 10:52:22;;;;;;;42.10;14.80;;;;;;;3.06;59.35;101719.28;4400261;32;20106;-87
2022/12/18 10:54:53;;;;;;;39.40;14.93;;;;;;;3.02;59.35;101715.75;4403414;32;20110;-87
2022/12/18 10:57:24;;;;;;;41.53;16.58;;;;;;;3.21;59.35;101714.59;4407863;32;20142;-88
2022/12/18 10:59:54;;;;;;;47.28;15.57;;;;;;;3.28;59.36;101721.66;4416979;32;20467;-88
2022/12/18 11:02:27;;;;;;;;;;;;;;;3.22;59.36;101707.75;4409501;32;20124;-88
2022/12/18 11:04:53;;;;;;;39.20;15.85;;;;;;;3.28;59.36;101708.78;4423850;32;19989;-87
2022/12/18 11:07:18;;;;;;;36.03;13.88;;;;;;;3.39;59.37;101701.37;4397488;32;20081;-87
2022/12/18 11:09:43;;;;;;;41.37;16.33;;;;;;;3.30;59.35;101691.69;4397707;32;20156;-89
2022/12/18 11:12:19;;;;;;;40.55;15.82;;;;;;;3.32;59.36;101695.19;4386010;32;28321;-88
2022/12/18 11:14:47;;;;;;;37.88;14.95;;;;;;;3.45;59.36;101690.38;4388165;32;20093;-88
2022/12/18 11:17:32;;;;;;;53.67;19.77;;;;;;;3.51;59.37;101690.53;4414895;32;20124;-87
2022/12/18 11:20:01;;;;;;;41.42;16.65;;;;;;;3.51;59.37;101691.41;4408171;32;20094;-90
2022/12/18 11:22:28;;;;;;;33.88;12.98;;;;;;;3.52;59.37;101694.87;4383155;32;20147;-90
2022/12/18 11:25:05;;;;;;;34.88;14.25;;;;;;;3.65;59.38;101686.66;4409645;32;20094;-95
2022/12/18 11:27:31;;;;;;;29.33;11.75;;;;;;;3.86;59.39;101687.22;4426416;32;20161;-93
2022/12/18 11:30:26;;;;;;;35.20;14.25;;;;;;;3.82;59.38;101689.69;4412904;32;20152;-93
2022/12/18 11:33:06;;;;;;;31.40;12.65;;;;;;;3.69;59.38;101689.34;4389094;32;20133;-90
2022/12/18 11:35:45;;;;;;;32.20;11.07;;;;;;;3.72;59.38;101688.56;4412632;32;20166;-93
2022/12/18 11:38:30;;;;;;;26.20;11.25;;;;;;;3.68;59.37;101679.00;4400325;32;20170;-91
2022/12/18 11:41:16;;;;;;;38.08;12.98;;;;;;;3.59;59.37;101679.66;4400331;32;20116;-93